Terminal Aerodrome Forecast
Issued by NWS Sterling, VA

Home | Current Version | Previous Version | Text Only | Print | Product List | Glossary On
Versions: 1 2 3 4 5 6 7 8 9 10 11 12 13 14 15 16 17 18 19 20 21 22 23
000
FTUS41 KLWX 301141
TAFDCA
TAF
KDCA 301141Z 3012/0112 03008KT P6SM BKN015
     FM301400 07006KT P6SM BKN025
     FM301700 11007KT P6SM BKN040
     FM302200 13009KT P6SM SCT080
     FM010400 17007KT P6SM FEW040 SCT200
     FM011000 20010KT P6SM BKN030=

USA.gov is the U.S. government's official web portal to all federal, state and local government web resources and services.